createdAt,value
2023-03-25T00:00:22.820Z,7.78
2023-03-25T00:02:52.481Z,7.73
2023-03-25T00:05:21.640Z,7.81
2023-03-25T00:07:53.116Z,7.75
2023-03-25T00:10:20.714Z,7.76
2023-03-25T00:12:48.125Z,7.85
2023-03-25T00:15:16.469Z,7.86
2023-03-25T00:17:44.159Z,7.94
2023-03-25T00:20:12.376Z,7.96
2023-03-25T00:22:41.987Z,7.93
2023-03-25T00:25:11.056Z,7.96
2023-03-25T00:27:38.520Z,7.84
2023-03-25T00:30:06.685Z,7.87
2023-03-25T00:32:34.197Z,7.89
2023-03-25T00:35:01.664Z,7.88
2023-03-25T00:37:29.980Z,7.85
2023-03-25T00:39:57.353Z,7.83
2023-03-25T00:42:27.446Z,7.88
2023-03-25T00:44:55.380Z,7.86
2023-03-25T00:47:23.149Z,7.84
2023-03-25T00:49:51.706Z,7.87
2023-03-25T00:52:22.928Z,7.93
2023-03-25T00:54:50.805Z,7.91
2023-03-25T00:57:18.226Z,7.91
2023-03-25T00:59:45.727Z,7.92
2023-03-25T01:02:13.190Z,7.90
2023-03-25T01:04:42.446Z,7.95
2023-03-25T01:07:10.646Z,7.94
2023-03-25T01:09:39.792Z,7.93
2023-03-25T01:12:07.510Z,7.87
2023-03-25T01:14:35.261Z,7.88
2023-03-25T01:17:02.608Z,7.93
2023-03-25T01:19:31.262Z,7.91
2023-03-25T01:21:58.672Z,7.87
2023-03-25T01:24:26.072Z,7.88
2023-03-25T01:26:53.525Z,7.83
2023-03-25T01:29:21.717Z,7.87
2023-03-25T01:31:49.576Z,7.92
2023-03-25T01:34:17.442Z,7.78
2023-03-25T01:36:47.589Z,7.71
2023-03-25T01:39:16.688Z,7.72
2023-03-25T01:41:50.160Z,7.72
2023-03-25T01:44:24.158Z,7.78
2023-03-25T01:46:56.278Z,7.88
2023-03-25T01:49:27.002Z,7.88
2023-03-25T01:51:58.733Z,7.85
2023-03-25T01:54:27.495Z,7.79
2023-03-25T01:56:56.071Z,7.85
2023-03-25T01:59:27.206Z,7.86
2023-03-25T02:01:56.795Z,7.89
2023-03-25T02:04:45.391Z,7.96
2023-03-25T02:07:16.398Z,7.96
2023-03-25T02:09:44.372Z,7.97
2023-03-25T02:12:11.670Z,7.99
2023-03-25T02:14:39.699Z,7.94
2023-03-25T02:17:47.718Z,7.93
2023-03-25T02:20:21.069Z,7.88
2023-03-25T02:23:16.528Z,7.87
2023-03-25T02:26:08.390Z,7.84
2023-03-25T02:28:53.094Z,7.93
2023-03-25T02:32:01.609Z,8.01
2023-03-25T02:34:38.036Z,7.97
2023-03-25T02:37:26.417Z,8.05
2023-03-25T02:40:10.036Z,8.12
2023-03-25T02:42:57.783Z,8.08
2023-03-25T02:45:38.112Z,8.05
2023-03-25T02:48:27.716Z,7.93
2023-03-25T02:50:57.425Z,7.81
2023-03-25T02:53:33.395Z,7.49
2023-03-25T02:56:08.750Z,7.33
2023-03-25T02:58:36.250Z,7.03
2023-03-25T03:01:04.215Z,6.63
2023-03-25T03:03:32.051Z,6.41
2023-03-25T03:06:03.788Z,6.21
2023-03-25T03:08:49.917Z,6.06
2023-03-25T03:11:24.826Z,5.96
2023-03-25T03:14:06.715Z,5.94
2023-03-25T03:16:40.385Z,5.89
2023-03-25T03:19:16.689Z,5.79
2023-03-25T03:22:01.468Z,5.71
2023-03-25T03:24:40.948Z,5.73
2023-03-25T03:27:56.743Z,5.63
2023-03-25T03:30:43.885Z,5.58
2023-03-25T03:33:16.992Z,5.46
2023-03-25T03:36:07.324Z,5.43
2023-03-25T03:38:41.719Z,5.28
2023-03-25T03:41:11.647Z,5.37
2023-03-25T03:44:02.666Z,5.42
2023-03-25T03:46:46.293Z,5.22
2023-03-25T03:49:17.984Z,5.22
2023-03-25T03:51:52.589Z,5.19
2023-03-25T03:54:27.754Z,5.17
2023-03-25T03:57:03.938Z,5.12
2023-03-25T03:59:47.679Z,5.13
2023-03-25T04:02:35.925Z,5.18
2023-03-25T04:05:03.357Z,5.14
2023-03-25T04:07:45.349Z,5.17
2023-03-25T04:10:21.928Z,5.16
2023-03-25T04:12:53.765Z,5.19
2023-03-25T04:15:21.285Z,5.28
2023-03-25T04:17:48.813Z,5.37
2023-03-25T04:20:23.770Z,5.41
2023-03-25T04:22:52.450Z,5.45
2023-03-25T04:25:21.602Z,5.38
2023-03-25T04:27:49.509Z,5.45
2023-03-25T04:30:20.301Z,5.46
2023-03-25T04:32:48.034Z,5.45
2023-03-25T04:35:17.080Z,5.59
2023-03-25T04:37:49.039Z,5.70
2023-03-25T04:40:18.794Z,5.82
2023-03-25T04:42:47.232Z,5.84
2023-03-25T04:45:16.911Z,6.02
2023-03-25T04:47:47.172Z,6.07
2023-03-25T04:50:28.695Z,6.09
2023-03-25T04:53:00.506Z,6.02
2023-03-25T04:55:27.950Z,5.99
2023-03-25T04:57:55.577Z,5.94
2023-03-25T05:00:25.072Z,5.98
2023-03-25T05:02:56.195Z,5.97
2023-03-25T05:05:25.397Z,5.93
2023-03-25T05:07:54.498Z,5.89
2023-03-25T05:10:24.208Z,5.78
2023-03-25T05:12:57.917Z,5.85
2023-03-25T05:15:25.275Z,6.03
2023-03-25T05:17:52.850Z,5.90
2023-03-25T05:20:22.459Z,5.95
2023-03-25T05:22:49.985Z,5.91
2023-03-25T05:25:18.297Z,6.03
2023-03-25T05:27:46.363Z,5.99
2023-03-25T05:30:14.403Z,6.23
2023-03-25T05:32:41.899Z,6.22
2023-03-25T05:35:10.424Z,6.25
2023-03-25T05:37:37.938Z,6.32
2023-03-25T05:40:14.457Z,6.45
2023-03-25T05:42:47.206Z,6.48
2023-03-25T05:45:16.019Z,6.43
2023-03-25T05:47:44.481Z,6.57
2023-03-25T05:50:11.996Z,6.58
2023-03-25T05:52:41.689Z,6.62
2023-03-25T05:55:14.327Z,6.63
2023-03-25T05:57:41.701Z,6.69
2023-03-25T06:00:10.938Z,6.81
2023-03-25T06:02:43.264Z,6.79
2023-03-25T06:05:15.547Z,6.83
2023-03-25T06:07:45.956Z,6.92
2023-03-25T06:10:17.160Z,6.93
2023-03-25T06:12:46.558Z,7.07
2023-03-25T06:15:18.196Z,7.11
2023-03-25T06:17:48.861Z,7.15
2023-03-25T06:20:19.512Z,7.08
2023-03-25T06:22:47.199Z,7.15
2023-03-25T06:25:20.584Z,7.16
2023-03-25T06:27:49.980Z,7.17
2023-03-25T06:30:21.447Z,7.20
2023-03-25T06:32:50.850Z,7.25
2023-03-25T06:35:20.246Z,7.24
2023-03-25T06:37:48.904Z,7.26
2023-03-25T06:40:25.872Z,7.29
2023-03-25T06:42:53.363Z,7.36
2023-03-25T06:45:55.172Z,7.38
2023-03-25T06:48:37.241Z,7.46
2023-03-25T06:51:04.931Z,7.45
2023-03-25T06:53:32.838Z,7.50
2023-03-25T06:56:00.377Z,7.56
2023-03-25T06:58:35.198Z,7.65
2023-03-25T07:01:07.230Z,7.62
2023-03-25T07:03:36.455Z,7.72
2023-03-25T07:06:05.395Z,7.80
2023-03-25T07:08:32.852Z,7.79
2023-03-25T07:11:04.170Z,7.80
2023-03-25T07:13:31.702Z,7.87
2023-03-25T07:15:59.824Z,7.91
2023-03-25T07:18:27.289Z,8.10
2023-03-25T07:20:54.652Z,8.31
2023-03-25T07:23:21.992Z,8.23
2023-03-25T07:25:50.040Z,8.44
2023-03-25T07:28:17.904Z,8.45
2023-03-25T07:30:47.381Z,8.79
2023-03-25T07:33:14.795Z,8.51
2023-03-25T07:35:42.161Z,8.41
2023-03-25T07:38:10.024Z,8.43
2023-03-25T07:40:37.491Z,8.45
2023-03-25T07:43:05.200Z,8.50
2023-03-25T07:46:05.533Z,8.55
2023-03-25T07:48:33.386Z,9.52
2023-03-25T07:51:00.970Z,10.15
2023-03-25T07:53:28.304Z,9.69
2023-03-25T07:55:55.985Z,9.60
2023-03-25T07:58:23.366Z,9.59
2023-03-25T08:00:50.766Z,9.24
2023-03-25T08:03:18.318Z,9.34
2023-03-25T08:05:47.519Z,9.56
2023-03-25T08:08:15.465Z,10.48
2023-03-25T08:10:44.231Z,11.44
2023-03-25T08:13:12.227Z,11.60
2023-03-25T08:15:40.441Z,11.41
2023-03-25T08:18:08.165Z,10.96
2023-03-25T08:20:36.295Z,9.84
2023-03-25T08:23:03.969Z,9.68
2023-03-25T08:25:31.831Z,9.50
2023-03-25T08:27:59.172Z,9.56
2023-03-25T08:30:26.560Z,9.93
2023-03-25T08:32:56.621Z,10.45
2023-03-25T08:35:24.277Z,11.36
2023-03-25T08:37:52.030Z,11.84
2023-03-25T08:40:20.053Z,11.23
2023-03-25T08:42:47.507Z,11.19
2023-03-25T08:45:15.502Z,10.64
2023-03-25T08:47:45.579Z,11.52
2023-03-25T08:50:13.532Z,11.45
2023-03-25T08:52:41.237Z,10.99
2023-03-25T08:55:12.214Z,10.62
2023-03-25T08:57:39.803Z,10.73
2023-03-25T09:00:13.035Z,10.54
2023-03-25T09:02:42.091Z,10.17
2023-03-25T09:05:11.100Z,10.26
2023-03-25T09:07:40.525Z,10.03
2023-03-25T09:10:08.714Z,9.62
2023-03-25T09:12:36.124Z,9.39
2023-03-25T09:15:03.537Z,8.90
2023-03-25T09:17:30.984Z,8.48
2023-03-25T09:19:59.068Z,8.45
2023-03-25T09:22:26.556Z,8.46
2023-03-25T09:24:54.385Z,8.38
2023-03-25T09:27:21.754Z,8.28
2023-03-25T09:29:49.269Z,8.37
2023-03-25T09:32:17.998Z,8.55
2023-03-25T09:34:45.692Z,9.05
2023-03-25T09:37:13.058Z,9.83
2023-03-25T09:39:40.609Z,10.26
2023-03-25T09:42:37.459Z,10.06
2023-03-25T09:45:14.075Z,9.77
2023-03-25T09:47:50.980Z,9.67
2023-03-25T09:50:18.775Z,9.58
2023-03-25T09:52:49.017Z,9.65
2023-03-25T09:55:25.400Z,10.27
2023-03-25T09:58:05.430Z,10.75
2023-03-25T10:00:33.959Z,10.97
2023-03-25T10:03:19.315Z,11.11
2023-03-25T10:06:27.165Z,11.50
2023-03-25T10:09:12.896Z,11.27
2023-03-25T10:12:04.093Z,10.96
2023-03-25T10:14:53.663Z,11.08
2023-03-25T10:17:42.211Z,11.65
2023-03-25T10:20:29.143Z,10.84
2023-03-25T10:23:26.364Z,11.46
2023-03-25T10:25:59.172Z,11.55
2023-03-25T10:28:33.823Z,11.82
2023-03-25T10:31:01.619Z,11.91
2023-03-25T10:33:39.940Z,11.22
2023-03-25T10:36:10.668Z,10.32
2023-03-25T10:38:39.242Z,10.00
2023-03-25T10:41:33.383Z,9.77
2023-03-25T10:44:00.758Z,9.61
2023-03-25T10:46:47.868Z,9.53
2023-03-25T10:49:21.247Z,9.31
2023-03-25T10:51:52.957Z,9.14
2023-03-25T10:54:21.643Z,8.92
2023-03-25T10:56:51.414Z,8.87
2023-03-25T10:59:29.803Z,8.79
2023-03-25T11:01:58.188Z,8.60
2023-03-25T11:04:35.263Z,8.57
2023-03-25T11:07:05.888Z,8.77
2023-03-25T11:09:36.648Z,8.77
2023-03-25T11:12:07.008Z,8.84
2023-03-25T11:14:38.820Z,8.84
2023-03-25T11:17:15.203Z,9.36
2023-03-25T11:20:02.673Z,10.50
2023-03-25T11:22:32.146Z,10.49
2023-03-25T11:25:12.347Z,10.31
2023-03-25T11:28:14.456Z,10.11
2023-03-25T11:31:11.353Z,10.05
2023-03-25T11:33:41.129Z,9.90
2023-03-25T11:36:24.364Z,10.04
2023-03-25T11:39:04.715Z,10.64
2023-03-25T11:41:34.533Z,10.74
2023-03-25T11:44:03.236Z,10.56
2023-03-25T11:46:31.610Z,10.53
2023-03-25T11:49:12.103Z,10.65
2023-03-25T11:51:39.747Z,10.96
2023-03-25T11:54:09.488Z,11.92
2023-03-25T11:56:39.434Z,12.08
2023-03-25T11:59:21.076Z,12.07
2023-03-25T12:01:49.928Z,12.00
2023-03-25T12:04:24.897Z,11.52
2023-03-25T12:06:58.088Z,11.09
2023-03-25T12:09:29.826Z,10.98
2023-03-25T12:12:04.419Z,10.83
2023-03-25T12:14:37.510Z,10.88
2023-03-25T12:17:19.521Z,10.99
2023-03-25T12:20:13.506Z,10.90
2023-03-25T12:23:00.886Z,10.98
2023-03-25T12:25:42.423Z,12.50
2023-03-25T12:28:24.234Z,12.74
2023-03-25T12:31:15.369Z,14.23
2023-03-25T12:34:05.720Z,15.18
2023-03-25T12:36:54.449Z,15.93
2023-03-25T12:39:41.558Z,14.75
2023-03-25T12:42:21.931Z,14.19
2023-03-25T12:44:52.332Z,13.23
2023-03-25T12:47:35.140Z,12.58
2023-03-25T12:50:05.409Z,12.35
2023-03-25T12:52:59.137Z,12.09
2023-03-25T12:56:00.390Z,11.63
2023-03-25T12:58:30.645Z,11.46
2023-03-25T13:01:17.543Z,11.33
2023-03-25T13:03:59.346Z,10.71
2023-03-25T13:06:31.508Z,11.13
2023-03-25T13:09:25.396Z,12.88
2023-03-25T13:12:04.405Z,13.47
2023-03-25T13:15:02.921Z,14.57
2023-03-25T13:17:57.837Z,14.62
2023-03-25T13:20:27.576Z,14.82
2023-03-25T13:23:01.830Z,15.35
2023-03-25T13:26:00.902Z,15.30
2023-03-25T13:28:38.280Z,15.28
2023-03-25T13:31:09.194Z,14.85
2023-03-25T13:33:44.278Z,15.04
2023-03-25T13:36:16.644Z,13.76
2023-03-25T13:38:49.271Z,13.20
2023-03-25T13:41:39.524Z,13.06
2023-03-25T13:44:20.323Z,13.02
2023-03-25T13:46:54.661Z,13.07
2023-03-25T13:49:37.909Z,13.03
2023-03-25T13:52:07.480Z,12.97
2023-03-25T13:54:52.206Z,12.65
2023-03-25T13:57:35.246Z,12.40
2023-03-25T14:00:27.092Z,12.28
2023-03-25T14:03:09.676Z,12.19
2023-03-25T14:05:45.637Z,12.50
2023-03-25T14:08:27.706Z,12.90
2023-03-25T14:11:15.997Z,13.55
2023-03-25T14:13:51.928Z,13.45
2023-03-25T14:16:23.443Z,13.43
2023-03-25T14:18:53.818Z,13.04
2023-03-25T14:21:22.297Z,12.94
2023-03-25T14:23:49.809Z,12.72
2023-03-25T14:26:18.526Z,12.54
2023-03-25T14:28:47.705Z,12.37
2023-03-25T14:31:15.007Z,11.98
2023-03-25T14:34:00.887Z,11.33
2023-03-25T14:36:51.884Z,10.44
2023-03-25T14:39:28.250Z,10.18
2023-03-25T14:41:55.555Z,10.20
2023-03-25T14:44:28.714Z,10.38
2023-03-25T14:47:20.705Z,10.42
2023-03-25T14:50:01.485Z,10.51
2023-03-25T14:52:40.724Z,10.66
2023-03-25T14:55:19.459Z,10.66
2023-03-25T14:57:48.031Z,10.79
2023-03-25T15:00:29.394Z,10.88
2023-03-25T15:03:13.547Z,11.11
2023-03-25T15:05:42.483Z,11.10
2023-03-25T15:08:10.092Z,11.20
2023-03-25T15:10:49.909Z,11.21
2023-03-25T15:13:46.312Z,11.42
2023-03-25T15:16:32.469Z,11.45
2023-03-25T15:19:03.349Z,11.44
2023-03-25T15:22:02.902Z,11.49
2023-03-25T15:24:32.030Z,11.53
2023-03-25T15:27:02.420Z,11.65
2023-03-25T15:30:24.171Z,11.64
2023-03-25T15:33:21.948Z,11.64
2023-03-25T15:36:16.644Z,11.65
2023-03-25T15:39:21.495Z,11.69
2023-03-25T15:42:07.511Z,11.71
2023-03-25T15:44:49.968Z,11.72
2023-03-25T15:47:35.634Z,11.80
2023-03-25T15:50:20.615Z,11.89
2023-03-25T15:53:41.951Z,11.92
2023-03-25T15:56:31.949Z,11.85
2023-03-25T15:59:08.394Z,11.86
2023-03-25T16:01:39.314Z,11.88
2023-03-25T16:04:39.283Z,11.86
2023-03-25T16:07:09.118Z,11.82
2023-03-25T16:09:47.048Z,11.99
2023-03-25T16:12:21.044Z,12.04
2023-03-25T16:14:49.365Z,12.07
2023-03-25T16:17:19.463Z,11.99
2023-03-25T16:19:54.370Z,11.93
2023-03-25T16:22:29.096Z,12.01
2023-03-25T16:25:03.366Z,12.16
2023-03-25T16:27:36.730Z,12.11
2023-03-25T16:30:29.639Z,11.88
2023-03-25T16:33:11.704Z,11.75
2023-03-25T16:35:42.184Z,11.62
2023-03-25T16:38:14.635Z,11.61
2023-03-25T16:40:43.830Z,11.68
2023-03-25T16:43:26.085Z,11.57
2023-03-25T16:45:58.808Z,11.43
2023-03-25T16:48:31.684Z,11.34
2023-03-25T16:51:05.725Z,11.22
2023-03-25T16:53:35.129Z,11.02
2023-03-25T16:56:32.569Z,10.88
2023-03-25T16:59:07.740Z,10.77
2023-03-25T17:01:42.333Z,10.71
2023-03-25T17:04:39.311Z,10.53
2023-03-25T17:07:12.465Z,10.53
2023-03-25T17:09:42.824Z,10.43
2023-03-25T17:12:17.053Z,10.31
2023-03-25T17:14:47.006Z,10.23
2023-03-25T17:17:22.906Z,10.26
2023-03-25T17:19:52.492Z,10.19
2023-03-25T17:22:38.584Z,10.26
2023-03-25T17:25:36.118Z,10.17
2023-03-25T17:28:22.710Z,10.01
2023-03-25T17:30:50.559Z,10.12
2023-03-25T17:33:19.658Z,10.03
2023-03-25T17:35:53.891Z,9.97
2023-03-25T17:38:47.635Z,10.07
2023-03-25T17:41:19.136Z,9.98
2023-03-25T17:43:54.106Z,9.99
2023-03-25T17:46:24.301Z,10.08
2023-03-25T17:48:53.475Z,10.06
2023-03-25T17:51:22.109Z,9.97
2023-03-25T17:53:49.950Z,9.79
2023-03-25T17:56:27.497Z,9.80
2023-03-25T17:59:07.450Z,9.77
2023-03-25T18:01:36.099Z,9.84
2023-03-25T18:04:04.788Z,9.68
2023-03-25T18:06:32.231Z,9.79
2023-03-25T18:08:59.580Z,9.82
2023-03-25T18:11:27.068Z,9.68
2023-03-25T18:13:54.694Z,9.75
2023-03-25T18:16:22.501Z,9.66
2023-03-25T18:18:49.960Z,9.75
2023-03-25T18:21:19.726Z,9.64
2023-03-25T18:23:48.597Z,9.68
2023-03-25T18:26:18.768Z,9.53
2023-03-25T18:28:47.232Z,9.58
2023-03-25T18:31:17.411Z,9.65
2023-03-25T18:33:46.619Z,9.82
2023-03-25T18:36:14.558Z,9.98
2023-03-25T18:38:43.458Z,10.01
2023-03-25T18:41:14.333Z,9.91
2023-03-25T18:43:42.672Z,9.81
2023-03-25T18:46:14.316Z,9.81
2023-03-25T18:48:42.444Z,9.88
2023-03-25T18:51:12.452Z,9.94
2023-03-25T18:53:40.884Z,9.89
2023-03-25T18:56:09.711Z,10.00
2023-03-25T18:58:37.464Z,10.03
2023-03-25T19:01:07.698Z,10.05
2023-03-25T19:03:41.044Z,10.03
2023-03-25T19:06:12.045Z,10.19
2023-03-25T19:08:40.589Z,10.18
2023-03-25T19:11:18.879Z,10.26
2023-03-25T19:13:49.437Z,10.24
2023-03-25T19:16:16.980Z,10.18
2023-03-25T19:18:44.452Z,10.19
2023-03-25T19:21:16.415Z,10.12
2023-03-25T19:23:44.150Z,10.02
2023-03-25T19:26:12.154Z,9.99
2023-03-25T19:28:39.761Z,9.96
2023-03-25T19:31:07.171Z,9.89
2023-03-25T19:33:34.759Z,9.88
2023-03-25T19:36:03.907Z,9.83
2023-03-25T19:38:32.859Z,9.78
2023-03-25T19:41:18.615Z,9.72
2023-03-25T19:43:45.957Z,9.68
2023-03-25T19:46:13.330Z,9.51
2023-03-25T19:48:40.880Z,9.45
2023-03-25T19:51:08.290Z,9.18
2023-03-25T19:53:35.758Z,9.01
2023-03-25T19:56:06.760Z,8.84
2023-03-25T19:58:34.852Z,8.79
2023-03-25T20:01:02.499Z,8.78
2023-03-25T20:03:31.839Z,8.73
2023-03-25T20:06:01.010Z,8.74
2023-03-25T20:08:29.927Z,8.68
2023-03-25T20:10:57.397Z,8.75
2023-03-25T20:13:24.861Z,8.71
2023-03-25T20:15:52.796Z,8.72
2023-03-25T20:18:20.563Z,8.60
2023-03-25T20:20:47.883Z,8.57
2023-03-25T20:23:15.382Z,8.63
2023-03-25T20:25:43.362Z,8.61
2023-03-25T20:28:10.986Z,8.61
2023-03-25T20:30:38.642Z,8.60
2023-03-25T20:33:06.269Z,8.68
2023-03-25T20:35:33.847Z,8.64
2023-03-25T20:38:01.257Z,8.58
2023-03-25T20:40:41.565Z,8.62
2023-03-25T20:43:13.870Z,8.51
2023-03-25T20:45:42.270Z,8.60
2023-03-25T20:48:09.668Z,8.62
2023-03-25T20:50:37.089Z,8.56
2023-03-25T20:53:05.778Z,8.53
2023-03-25T20:55:33.289Z,8.60
2023-03-25T20:58:00.876Z,8.59
2023-03-25T21:00:28.372Z,8.56
2023-03-25T21:02:57.581Z,8.56
2023-03-25T21:05:27.211Z,8.57
2023-03-25T21:07:54.933Z,8.56
2023-03-25T21:10:22.456Z,8.58
2023-03-25T21:12:50.096Z,8.61
2023-03-25T21:15:18.177Z,8.59
2023-03-25T21:17:45.546Z,8.55
2023-03-25T21:20:13.128Z,8.53
2023-03-25T21:22:45.020Z,8.50
2023-03-25T21:25:14.383Z,8.49
2023-03-25T21:27:44.834Z,8.40
2023-03-25T21:30:13.030Z,8.40
2023-03-25T21:32:41.009Z,8.50
2023-03-25T21:35:09.457Z,8.41
2023-03-25T21:37:39.003Z,8.41
2023-03-25T21:40:10.486Z,8.40
2023-03-25T21:42:39.293Z,8.29
2023-03-25T21:45:08.103Z,8.34
2023-03-25T21:47:36.808Z,8.30
2023-03-25T21:50:10.390Z,8.24
2023-03-25T21:52:43.236Z,8.25
2023-03-25T21:55:11.284Z,8.25
2023-03-25T21:57:40.037Z,8.23
2023-03-25T22:00:09.037Z,8.19
2023-03-25T22:02:45.609Z,8.10
2023-03-25T22:05:14.677Z,8.13
2023-03-25T22:07:42.649Z,8.16
2023-03-25T22:10:11.080Z,8.17
2023-03-25T22:12:38.494Z,8.26
2023-03-25T22:15:06.415Z,8.27
2023-03-25T22:17:33.796Z,8.22
2023-03-25T22:20:01.186Z,8.30
2023-03-25T22:22:29.970Z,8.33
2023-03-25T22:24:57.409Z,8.31
2023-03-25T22:27:24.832Z,8.24
2023-03-25T22:29:52.215Z,8.09
2023-03-25T22:32:19.771Z,8.03
2023-03-25T22:34:47.260Z,7.96
2023-03-25T22:37:14.646Z,7.97
2023-03-25T22:39:42.123Z,7.97
2023-03-25T22:42:09.482Z,8.02
2023-03-25T22:44:36.954Z,7.99
2023-03-25T22:47:04.276Z,7.99
2023-03-25T22:49:31.682Z,7.72
2023-03-25T22:51:59.075Z,7.52
2023-03-25T22:54:26.591Z,7.35
2023-03-25T22:56:53.974Z,7.19
2023-03-25T22:59:21.632Z,7.16
2023-03-25T23:01:49.056Z,7.01
2023-03-25T23:04:16.543Z,7.04
2023-03-25T23:06:48.923Z,7.08
2023-03-25T23:09:41.378Z,7.01
2023-03-25T23:12:20.248Z,7.03
2023-03-25T23:14:55.589Z,7.00
2023-03-25T23:17:24.875Z,6.92
2023-03-25T23:19:52.661Z,6.83
2023-03-25T23:22:21.149Z,6.88
2023-03-25T23:24:48.610Z,6.79
2023-03-25T23:27:16.168Z,6.85
2023-03-25T23:29:44.835Z,6.91
2023-03-25T23:32:12.215Z,6.94
2023-03-25T23:34:40.303Z,6.95
2023-03-25T23:37:10.188Z,7.01
2023-03-25T23:39:40.315Z,7.04
2023-03-25T23:42:08.322Z,7.17
2023-03-25T23:44:35.964Z,7.11
2023-03-25T23:47:03.924Z,7.22
2023-03-25T23:49:33.245Z,7.27
2023-03-25T23:52:00.845Z,7.24
2023-03-25T23:54:28.286Z,7.14
2023-03-25T23:56:55.873Z,7.09
2023-03-25T23:59:23.322Z,7.12
